Time;durP1;ratioP1;P1;durP2;ratioP2;P2;SDS_P1;SDS_P2;PMS_P1;PMS_P2;Temp;Humidity;BMP_temperature;BMP_pressure;BME280_temperature;BME280_humidity;BME280_pressure;Samples;Min_cycle;Max_cycle;Signal;HPM_P1;HPM_P2
2022/05/08 00:00:18;;;;;;;11.10;4.95;;;;;;;12.34;72.86;102407.22;4968576;28;20408;-91
2022/05/08 00:02:44;;;;;;;9.63;4.93;;;;;;;12.31;72.31;102393.09;4964764;28;20093;-92
2022/05/08 00:05:09;;;;;;;8.68;5.13;;;;;;;12.29;72.90;102393.16;4971476;28;20468;-91
2022/05/08 00:07:35;;;;;;;8.52;5.30;;;;;;;12.27;72.99;102395.00;4970383;28;20034;-92
2022/05/08 00:10:00;;;;;;;10.02;5.30;;;;;;;12.19;73.15;102395.25;4968717;28;20088;-92
2022/05/08 00:12:26;;;;;;;9.15;5.50;;;;;;;12.20;73.52;102399.66;4981432;28;20552;-92
2022/05/08 00:14:51;;;;;;;8.38;5.43;;;;;;;12.25;73.32;102407.53;4967791;28;20026;-91
2022/05/08 00:17:16;;;;;;;9.85;5.75;;;;;;;12.25;73.36;102404.88;4967942;28;20035;-91
2022/05/08 00:19:43;;;;;;;11.57;6.53;;;;;;;12.23;73.64;102400.47;4969871;28;20030;-92
2022/05/08 00:22:09;;;;;;;11.30;6.78;;;;;;;12.20;73.58;102398.78;4967768;28;20170;-91
2022/05/08 00:24:35;;;;;;;9.27;5.78;;;;;;;12.21;74.02;102396.06;4979541;28;20046;-92
2022/05/08 00:27:00;;;;;;;12.32;7.25;;;;;;;12.16;74.15;102399.81;4987786;28;20045;-92
2022/05/08 00:29:26;;;;;;;13.02;6.53;;;;;;;12.12;74.17;102396.38;4989142;28;20514;-90
2022/05/08 00:31:51;;;;;;;10.23;6.85;;;;;;;12.12;74.21;102390.16;4982417;28;20050;-91
2022/05/08 00:34:16;;;;;;;10.25;6.72;;;;;;;12.14;74.50;102396.31;4987262;28;20048;-90
2022/05/08 00:36:42;;;;;;;11.45;6.60;;;;;;;12.09;74.53;102384.94;4987041;28;20109;-91
2022/05/08 00:39:07;;;;;;;13.63;6.45;;;;;;;12.10;74.54;102386.66;4985723;28;20165;-91
2022/05/08 00:41:32;;;;;;;14.50;6.93;;;;;;;12.06;74.80;102382.34;4989192;28;20106;-90
2022/05/08 00:43:57;;;;;;;12.50;6.88;;;;;;;12.09;75.15;102384.94;4982799;28;20030;-91
2022/05/08 00:46:23;;;;;;;9.80;6.43;;;;;;;12.09;74.76;102382.25;4983047;28;20026;-91
2022/05/08 00:48:48;;;;;;;12.18;7.07;;;;;;;12.07;74.67;102381.41;4987685;28;20034;-91
2022/05/08 00:51:16;;;;;;;9.73;6.93;;;;;;;12.10;75.35;102390.22;4989493;28;20038;-90
2022/05/08 00:53:43;;;;;;;12.48;7.20;;;;;;;12.04;75.33;102395.75;4985407;28;20030;-90
2022/05/08 00:56:11;;;;;;;11.15;7.75;;;;;;;12.06;75.33;102391.22;4987828;28;20503;-89
2022/05/08 00:58:38;;;;;;;14.20;8.27;;;;;;;12.05;75.64;102400.16;4988151;28;20034;-91
2022/05/08 01:01:05;;;;;;;12.38;8.38;;;;;;;12.02;75.81;102400.25;4987011;28;20030;-91
2022/05/08 01:03:30;;;;;;;11.82;7.50;;;;;;;12.00;75.63;102398.53;4987389;28;20053;-91
2022/05/08 01:05:57;;;;;;;11.85;8.02;;;;;;;12.00;75.97;102403.88;4988847;28;20034;-91
2022/05/08 01:08:24;;;;;;;12.60;8.43;;;;;;;12.02;75.93;102400.25;4980738;28;20391;-90
2022/05/08 01:10:50;;;;;;;12.23;7.72;;;;;;;12.04;76.11;102403.75;4986575;28;20026;-91
2022/05/08 01:13:15;;;;;;;12.18;8.90;;;;;;;12.03;76.26;102402.00;4986180;28;20038;-91
2022/05/08 01:15:43;;;;;;;11.88;8.55;;;;;;;12.02;76.31;102407.41;4982938;28;20042;-91
2022/05/08 01:18:11;;;;;;;14.77;8.38;;;;;;;12.03;75.97;102401.13;4970599;28;20046;-90
2022/05/08 01:20:37;;;;;;;12.85;8.82;;;;;;;11.98;75.94;102409.28;4987890;28;20034;-91
2022/05/08 01:23:04;;;;;;;14.48;9.25;;;;;;;11.96;76.32;102408.47;4975580;28;20452;-90
2022/05/08 01:25:29;;;;;;;14.82;8.85;;;;;;;11.89;76.11;102407.78;4986290;28;20084;-91
2022/05/08 01:27:54;;;;;;;12.30;8.60;;;;;;;11.89;76.74;102410.44;4987211;28;20034;-92
2022/05/08 01:30:22;;;;;;;14.52;9.15;;;;;;;11.89;76.08;102413.13;4985337;28;20030;-91
2022/05/08 01:32:47;;;;;;;13.32;9.48;;;;;;;11.87;76.05;102401.63;4985596;28;20026;-93
2022/05/08 01:35:13;;;;;;;14.43;9.40;;;;;;;11.87;75.88;102406.97;4978904;28;20639;-91
2022/05/08 01:37:38;;;;;;;13.88;9.48;;;;;;;11.87;75.91;102406.06;4987865;28;20036;-91
2022/05/08 01:40:04;;;;;;;14.45;9.23;;;;;;;11.81;75.82;102412.44;4982892;28;20026;-90
2022/05/08 01:42:29;;;;;;;14.25;10.00;;;;;;;11.76;76.04;102408.19;4985982;28;20408;-90
2022/05/08 01:44:54;;;;;;;14.15;10.43;;;;;;;11.72;76.21;102410.94;4985957;28;20109;-91
2022/05/08 01:50:04;;;;;;;16.75;10.38;;;;;;;11.62;76.22;102412.16;4989720;28;20038;-91
2022/05/08 01:52:29;;;;;;;19.00;9.82;;;;;;;11.57;76.49;102419.38;4989455;28;20034;-92
2022/05/08 01:54:55;;;;;;;14.48;9.80;;;;;;;11.54;76.72;102419.50;4991201;28;20042;-91
2022/05/08 01:57:20;;;;;;;15.73;9.77;;;;;;;11.52;76.47;102417.78;4992882;28;20392;-91
2022/05/08 01:59:45;;;;;;;18.65;10.45;;;;;;;11.51;76.36;102424.06;4992034;28;20092;-90
2022/05/08 02:02:10;;;;;;;14.95;8.50;;;;;;;11.41;76.44;102424.34;4987563;28;20037;-91
2022/05/08 02:04:37;;;;;;;17.77;10.02;;;;;;;11.37;76.71;102429.78;4988670;28;20423;-92
2022/05/08 02:07:03;;;;;;;14.88;9.40;;;;;;;11.27;76.68;102417.63;4991159;28;20034;-91
2022/05/08 02:09:28;;;;;;;12.10;9.13;;;;;;;11.29;76.62;102419.34;4991738;28;20034;-91
2022/05/08 02:11:53;;;;;;;14.32;9.75;;;;;;;11.28;77.03;102427.38;4987875;28;20052;-91
2022/05/08 02:14:18;;;;;;;15.00;9.52;;;;;;;11.23;77.17;102423.03;4988701;28;20030;-91
2022/05/08 02:16:44;;;;;;;16.15;9.95;;;;;;;11.21;77.02;102432.03;4989485;28;20057;-90
2022/05/08 02:19:09;;;;;;;13.48;9.27;;;;;;;11.18;77.04;102435.63;4989595;28;20033;-90
2022/05/08 02:21:34;;;;;;;16.58;9.93;;;;;;;11.16;77.49;102439.25;4988126;28;20042;-91
2022/05/08 02:23:59;;;;;;;16.20;10.18;;;;;;;11.14;77.76;102436.63;4990289;28;20054;-91
2022/05/08 02:26:25;;;;;;;18.25;9.95;;;;;;;11.14;77.55;102435.78;4991186;28;21367;-92
2022/05/08 02:28:50;;;;;;;20.20;9.45;;;;;;;11.16;77.93;102440.16;4990516;28;20425;-89
2022/05/08 02:31:15;;;;;;;15.48;10.20;;;;;;;11.15;77.35;102442.84;4972283;28;20033;-91
2022/05/08 02:33:40;;;;;;;15.15;9.85;;;;;;;11.09;77.35;102440.34;4986308;28;20050;-90
2022/05/08 02:36:06;;;;;;;17.50;9.57;;;;;;;11.08;77.54;102450.16;4977747;28;20043;-90
2022/05/08 02:38:33;;;;;;;14.50;9.02;;;;;;;11.07;77.55;102448.38;4990051;28;20034;-92
2022/05/08 02:40:58;;;;;;;16.92;9.23;;;;;;;10.99;77.43;102453.03;4989606;28;20117;-93
2022/05/08 02:43:23;;;;;;;14.68;9.30;;;;;;;10.98;77.63;102448.63;4988588;28;20572;-91
2022/05/08 02:45:48;;;;;;;13.77;9.25;;;;;;;10.97;77.43;102449.56;4988717;28;20030;-90
2022/05/08 02:48:14;;;;;;;14.10;9.85;;;;;;;10.94;77.34;102444.28;4989890;28;20468;-91
2022/05/08 02:50:39;;;;;;;19.08;9.65;;;;;;;10.94;77.92;102445.16;4990737;28;20110;-91
2022/05/08 02:53:04;;;;;;;17.80;9.80;;;;;;;10.91;78.09;102444.38;4988164;28;20057;-91
2022/05/08 03:00:59;;;;;;;16.25;9.35;;;;;;;10.84;76.43;102453.47;4990054;28;20567;-90
2022/05/08 03:03:25;;;;;;;17.90;9.45;;;;;;;10.71;76.71;102445.78;4970925;28;20570;-90
2022/05/08 03:05:50;;;;;;;14.02;8.80;;;;;;;10.64;76.39;102453.97;4980109;28;20030;-90
2022/05/08 03:08:17;;;;;;;17.92;9.38;;;;;;;10.62;76.71;102454.03;4989848;28;20570;-91
2022/05/08 03:13:28;;;;;;;15.07;9.43;;;;;;;10.58;77.00;102441.69;4984786;28;20045;-90
2022/05/08 03:15:53;;;;;;;15.43;8.55;;;;;;;10.52;76.68;102440.97;4988647;28;20030;-90
2022/05/08 03:18:19;;;;;;;18.60;10.23;;;;;;;10.54;76.92;102445.34;4990353;28;20026;-91
2022/05/08 03:20:44;;;;;;;17.83;9.60;;;;;;;10.61;76.97;102448.72;4987354;28;20084;-89
2022/05/08 03:23:09;;;;;;;16.67;9.77;;;;;;;10.60;76.78;102441.66;4987144;28;20145;-91
2022/05/08 03:25:36;;;;;;;18.75;9.10;;;;;;;10.60;76.66;102446.97;4990332;28;20082;-91
2022/05/08 03:28:01;;;;;;;18.67;9.98;;;;;;;10.60;76.46;102445.19;4983478;28;20050;-91
2022/05/08 03:30:28;;;;;;;16.50;9.40;;;;;;;10.62;75.69;102445.16;4987343;28;20060;-91
2022/05/08 03:32:53;;;;;;;19.48;9.90;;;;;;;10.52;76.25;102441.84;4973157;28;20034;-91
2022/05/08 03:35:18;;;;;;;17.23;9.50;;;;;;;10.44;76.68;102447.34;4990273;28;20515;-91
2022/05/08 03:37:44;;;;;;;18.25;10.18;;;;;;;10.40;76.85;102448.34;4987184;28;20041;-90
2022/05/08 03:40:10;;;;;;;17.48;10.02;;;;;;;10.40;77.14;102453.66;4989820;28;20095;-91
2022/05/08 03:42:35;;;;;;;16.20;9.35;;;;;;;10.32;76.20;102442.31;4986163;28;20084;-91
2022/05/08 03:45:01;;;;;;;18.67;10.10;;;;;;;10.25;75.64;102448.72;4987864;28;20858;-90
2022/05/08 03:47:26;;;;;;;17.83;9.20;;;;;;;10.19;75.18;102460.34;4972017;28;20431;-91
2022/05/08 03:49:51;;;;;;;15.57;9.07;;;;;;;10.14;74.85;102448.94;4988338;28;20034;-90
2022/05/08 03:52:16;;;;;;;15.00;9.27;;;;;;;10.07;74.82;102455.28;4984531;28;20030;-91
2022/05/08 03:54:41;;;;;;;19.33;9.50;;;;;;;10.01;75.17;102451.91;4988067;28;20412;-91
2022/05/08 03:57:07;;;;;;;17.83;9.05;;;;;;;10.02;75.54;102456.31;4989664;28;20034;-90
2022/05/08 03:59:32;;;;;;;18.02;9.73;;;;;;;10.02;76.35;102451.00;4986936;28;20061;-91
2022/05/08 04:01:57;;;;;;;17.33;9.05;;;;;;;9.96;75.67;102446.72;4952151;28;20037;-91
2022/05/08 04:04:23;;;;;;;16.88;9.10;;;;;;;9.93;75.58;102447.63;4988636;28;20184;-90
2022/05/08 04:06:48;;;;;;;17.48;9.48;;;;;;;9.91;76.14;102443.28;4987524;28;20038;-94
2022/05/08 04:09:16;;;;;;;17.52;9.15;;;;;;;9.86;76.55;102454.00;4990474;28;20749;-92
2022/05/08 04:11:41;;;;;;;20.63;10.02;;;;;;;9.78;76.88;102455.06;4986122;28;20045;-91
2022/05/08 04:14:06;;;;;;;19.08;9.70;;;;;;;9.77;77.29;102459.53;4988181;28;20499;-90
2022/05/08 04:16:32;;;;;;;17.98;9.43;;;;;;;9.80;77.31;102461.25;4986131;28;20403;-91
2022/05/08 04:18:57;;;;;;;22.80;10.05;;;;;;;9.74;77.78;102459.63;4988810;28;20045;-90
2022/05/08 04:21:22;;;;;;;20.48;9.98;;;;;;;9.67;77.55;102458.00;4986776;28;20058;-89
2022/05/08 04:26:32;;;;;;;18.75;9.55;;;;;;;9.58;77.11;102466.16;4985764;28;20049;-91
2022/05/08 04:28:58;;;;;;;20.05;9.45;;;;;;;9.58;77.32;102475.00;4988926;28;20042;-91
2022/05/08 04:31:23;;;;;;;16.65;8.73;;;;;;;9.54;76.58;102461.81;4982537;28;20053;-90
2022/05/08 04:33:48;;;;;;;23.70;8.90;;;;;;;9.51;76.54;102468.06;4988933;28;20030;-90
2022/05/08 04:36:14;;;;;;;22.05;8.38;;;;;;;9.48;76.51;102471.63;4988662;28;20026;-90
2022/05/08 04:38:39;;;;;;;18.35;7.80;;;;;;;9.41;76.27;102461.19;4987155;28;20034;-91
2022/05/08 04:41:04;;;;;;;24.25;9.43;;;;;;;9.42;76.83;102471.78;4985419;28;20038;-91
2022/05/08 04:43:30;;;;;;;20.70;8.18;;;;;;;9.41;76.55;102469.16;4987351;28;20052;-91
2022/05/08 04:45:55;;;;;;;19.45;7.90;;;;;;;9.47;76.56;102479.66;4986919;28;20061;-89
2022/05/08 04:48:20;;;;;;;19.77;7.88;;;;;;;9.53;76.18;102486.63;4988427;28;20080;-90
2022/05/08 04:50:45;;;;;;;19.08;7.78;;;;;;;9.58;75.76;102490.09;4982357;28;20022;-90
2022/05/08 04:53:11;;;;;;;20.92;8.25;;;;;;;9.62;75.21;102487.34;4969442;28;20038;-90
2022/05/08 04:55:36;;;;;;;18.85;7.72;;;;;;;9.70;75.14;102492.50;4987669;28;20030;-90
2022/05/08 04:58:01;;;;;;;20.20;7.68;;;;;;;9.75;75.15;102495.94;4988964;28;20652;-89
2022/05/08 05:00:27;;;;;;;22.45;8.10;;;;;;;9.77;74.73;102496.75;4983863;28;20412;-90
2022/05/08 05:02:52;;;;;;;21.30;7.72;;;;;;;9.76;74.95;102500.31;4978497;28;20049;-90
2022/05/08 05:05:17;;;;;;;22.15;7.65;;;;;;;9.74;74.69;102496.84;4984766;28;20034;-91
2022/05/08 05:07:42;;;;;;;18.23;7.65;;;;;;;9.91;74.98;102512.44;4988409;28;20026;-90
2022/05/08 05:10:11;;;;;;;20.02;8.00;;;;;;;9.92;74.33;102512.41;4988921;28;20030;-90
2022/05/08 05:12:37;;;;;;;25.95;8.07;;;;;;;9.90;74.20;102514.19;4985423;28;20392;-89
2022/05/08 05:15:05;;;;;;;20.80;7.40;;;;;;;9.94;74.29;102517.66;4987368;28;20034;-90
2022/05/08 05:17:30;;;;;;;25.15;7.80;;;;;;;10.04;74.00;102526.34;4989170;28;20080;-88
2022/05/08 05:19:55;;;;;;;23.15;7.57;;;;;;;10.06;73.80;102528.03;4985305;28;20539;-89
2022/05/08 05:22:24;;;;;;;24.35;7.57;;;;;;;10.12;73.65;102519.06;4986731;28;20038;-91
2022/05/08 05:24:50;;;;;;;25.80;8.18;;;;;;;10.21;73.43;102529.50;4987000;28;20108;-90
2022/05/08 05:27:15;;;;;;;20.08;8.00;;;;;;;10.24;72.68;102526.75;4988477;28;20062;-90
2022/05/08 05:29:41;;;;;;;16.55;6.75;;;;;;;10.29;72.98;102524.06;4994494;28;20030;-91
2022/05/08 05:32:06;;;;;;;21.05;7.18;;;;;;;10.34;73.17;102525.69;4991201;28;20049;-89
2022/05/08 05:34:32;;;;;;;21.92;7.85;;;;;;;10.32;72.48;102535.47;4993253;28;20115;-91
2022/05/08 05:36:57;;;;;;;22.65;6.85;;;;;;;10.26;72.10;102530.31;4991036;28;20033;-89
2022/05/08 05:39:24;;;;;;;23.00;7.28;;;;;;;10.24;72.44;102537.41;4994744;28;20058;-91
2022/05/08 05:41:50;;;;;;;21.05;6.88;;;;;;;10.29;72.06;102551.53;4989079;28;20030;-89
2022/05/08 05:44:15;;;;;;;26.77;7.10;;;;;;;10.32;72.05;102550.56;4989641;28;20029;-90
2022/05/08 05:49:44;;;;;;;19.75;6.88;;;;;;;10.38;71.24;102546.00;4913293;29;20057;-89
2022/05/08 05:52:09;;;;;;;17.77;7.20;;;;;;;10.47;71.33;102559.09;4913605;29;20095;-91
2022/05/08 05:54:35;;;;;;;29.17;7.38;;;;;;;10.57;71.54;102559.75;4914682;29;20046;-92
2022/05/08 05:57:02;;;;;;;19.23;6.85;;;;;;;10.54;70.53;102550.97;4916721;29;20067;-93
2022/05/08 05:59:27;;;;;;;18.33;6.63;;;;;;;10.54;70.53;102564.28;4914869;29;20032;-91
2022/05/08 06:01:52;;;;;;;18.23;7.13;;;;;;;10.50;70.42;102562.59;4910670;29;20490;-91
2022/05/08 06:04:18;;;;;;;21.63;6.53;;;;;;;10.59;70.15;102557.06;4913379;29;20122;-91
2022/05/08 06:06:43;;;;;;;20.02;7.13;;;;;;;10.69;70.10;102572.75;4913018;29;20545;-93
2022/05/08 06:09:08;;;;;;;24.20;7.47;;;;;;;10.57;69.79;102557.06;4915872;29;20032;-91
2022/05/08 06:11:33;;;;;;;17.58;6.70;;;;;;;10.62;70.16;102568.53;4907729;29;20047;-92
2022/05/08 06:13:59;;;;;;;20.85;7.40;;;;;;;10.72;70.24;102574.50;4911077;29;20036;-93
2022/05/08 06:16:24;;;;;;;18.70;7.10;;;;;;;10.85;69.63;102573.28;4914394;29;20145;-92
2022/05/08 06:18:49;;;;;;;23.02;6.95;;;;;;;10.93;69.25;102576.63;4910102;29;20474;-90
2022/05/08 06:21:14;;;;;;;19.23;6.80;;;;;;;10.96;68.92;102570.38;4973565;28;20078;-91
2022/05/08 06:23:42;;;;;;;18.38;7.60;;;;;;;11.01;68.08;102584.44;4988108;28;20039;-96
2022/05/08 06:26:08;;;;;;;16.65;7.45;;;;;;;11.01;68.04;102580.91;4987974;28;20035;-94
2022/05/08 06:28:34;;;;;;;19.13;7.20;;;;;;;11.08;68.38;102586.03;4997470;28;20018;-91
2022/05/08 06:30:59;;;;;;;20.77;6.70;;;;;;;11.11;68.06;102585.06;4992064;28;20567;-90
2022/05/08 06:33:24;;;;;;;23.35;7.13;;;;;;;11.19;68.14;102583.09;4992434;28;20038;-93
2022/05/08 06:35:50;;;;;;;21.85;7.50;;;;;;;11.23;67.83;102592.75;4991456;28;20114;-94
2022/05/08 06:38:15;;;;;;;20.98;7.07;;;;;;;11.18;67.47;102592.00;4972483;28;20034;-93
2022/05/08 06:40:42;;;;;;;19.70;6.53;;;;;;;11.13;68.04;102588.59;4988636;28;20510;-95
2022/05/08 06:43:08;;;;;;;19.42;7.72;;;;;;;11.23;67.58;102596.28;4992943;28;20361;-94
2022/05/08 06:45:33;;;;;;;22.25;7.55;;;;;;;11.31;67.09;102604.09;4987616;28;20031;-90
2022/05/08 06:47:59;;;;;;;16.25;6.65;;;;;;;11.41;67.35;102594.06;4992700;28;20037;-92
2022/05/08 06:50:24;;;;;;;22.42;7.30;;;;;;;11.51;66.86;102595.59;4985533;28;20040;-92
2022/05/08 06:52:49;;;;;;;19.77;7.07;;;;;;;11.54;66.72;102595.50;4989114;28;20030;-93
2022/05/08 06:55:14;;;;;;;16.45;6.78;;;;;;;11.55;65.92;102593.72;4993967;28;20030;-92
2022/05/08 06:57:40;;;;;;;24.27;7.35;;;;;;;11.55;65.92;102599.03;4991659;28;20088;-94
2022/05/08 07:02:50;;;;;;;18.25;6.40;;;;;;;11.45;65.33;102596.63;4993569;28;20322;-95
2022/05/08 07:05:16;;;;;;;16.63;5.55;;;;;;;11.47;64.84;102600.13;4995385;28;20027;-96
2022/05/08 07:07:41;;;;;;;17.15;6.63;;;;;;;11.48;65.16;102593.88;4990497;28;20092;-96
2022/05/08 07:10:07;;;;;;;20.75;7.00;;;;;;;11.58;64.36;102604.28;4988960;28;20034;-94
2022/05/08 07:12:34;;;;;;;16.60;5.63;;;;;;;11.59;64.12;102604.25;4972513;28;20106;-96
2022/05/08 07:15:00;;;;;;;20.13;6.60;;;;;;;11.58;64.30;102618.50;4990207;28;20030;-96
2022/05/08 07:17:28;;;;;;;15.95;6.05;;;;;;;11.66;64.41;102613.84;4990442;28;20080;-94
2022/05/08 07:19:53;;;;;;;24.73;6.18;;;;;;;11.61;63.02;102612.19;4980910;28;20081;-96
2022/05/08 07:22:18;;;;;;;24.60;6.65;;;;;;;11.58;63.55;102613.19;4985088;28;20039;-92
2022/05/08 07:24:43;;;;;;;15.32;6.10;;;;;;;11.70;63.52;102609.28;4987520;28;20030;-94
2022/05/08 07:27:11;;;;;;;17.40;5.78;;;;;;;11.78;63.28;102617.94;4991199;28;20027;-94
2022/05/08 07:29:40;;;;;;;15.77;6.05;;;;;;;11.86;63.33;102612.44;4989825;28;20038;-94
2022/05/08 07:32:05;;;;;;;21.13;6.07;;;;;;;11.80;63.19;102616.13;4986485;28;20038;-92
2022/05/08 07:37:14;;;;;;;17.52;5.88;;;;;;;11.97;61.96;102626.34;4990161;28;20057;-94
2022/05/08 07:39:40;;;;;;;16.15;5.78;;;;;;;12.04;62.31;102624.38;4971772;28;20395;-94
2022/05/08 07:42:05;;;;;;;20.80;5.93;;;;;;;12.14;62.09;102625.88;4990992;28;20039;-93
2022/05/08 07:44:30;;;;;;;17.33;5.53;;;;;;;12.24;62.67;102616.66;4979174;28;20031;-94
2022/05/08 07:46:55;;;;;;;17.42;5.85;;;;;;;12.27;61.31;102618.38;4991924;28;20034;-94
2022/05/08 07:49:21;;;;;;;19.23;5.82;;;;;;;12.24;60.71;102616.66;4988707;28;20026;-95
2022/05/08 07:51:46;;;;;;;21.30;5.78;;;;;;;12.24;60.29;102630.00;4989887;28;20030;-92
2022/05/08 07:54:11;;;;;;;18.50;5.30;;;;;;;12.37;60.77;102623.41;4991024;28;20022;-93
2022/05/08 07:56:36;;;;;;;16.83;5.13;;;;;;;12.46;60.27;102620.47;4987403;28;20034;-94
2022/05/08 07:59:02;;;;;;;13.15;4.93;;;;;;;12.59;59.74;102625.44;4981713;28;20207;-95
2022/05/08 08:01:27;;;;;;;19.65;6.53;;;;;;;12.66;59.84;102630.50;4988244;28;20113;-95
2022/05/08 08:03:52;;;;;;;22.23;6.05;;;;;;;12.82;59.20;102633.56;4988965;28;20061;-93
2022/05/08 08:06:18;;;;;;;17.65;5.28;;;;;;;13.13;57.76;102633.47;4991004;28;20102;-96
2022/05/08 08:08:43;;;;;;;19.63;4.80;;;;;;;13.52;57.57;102642.91;4986312;28;20551;-95
2022/05/08 08:11:10;;;;;;;18.10;5.38;;;;;;;13.65;55.43;102633.53;4986410;28;20081;-92
2022/05/08 08:13:37;;;;;;;15.02;4.78;;;;;;;14.08;55.05;102642.66;4988077;28;20057;-94
2022/05/08 08:16:03;;;;;;;13.32;4.57;;;;;;;14.85;53.38;102633.47;4990118;28;20113;-93
2022/05/08 08:18:29;;;;;;;20.38;4.80;;;;;;;15.24;51.03;102643.47;4986254;28;20026;-96
2022/05/08 08:20:55;;;;;;;17.77;4.78;;;;;;;16.13;47.73;102637.78;4994125;28;20034;-93
2022/05/08 08:23:20;;;;;;;14.18;4.28;;;;;;;17.12;46.04;102634.88;4989624;28;20046;-96
2022/05/08 08:25:46;;;;;;;13.57;3.83;;;;;;;18.35;43.68;102652.72;4987818;28;20046;-94
2022/05/08 08:28:11;;;;;;;15.80;4.28;;;;;;;19.34;40.49;102632.69;4987579;28;20032;-96
2022/05/08 08:30:36;;;;;;;13.50;4.55;;;;;;;20.22;38.32;102641.72;4991567;28;20037;-94
2022/05/08 08:33:02;;;;;;;18.05;4.90;;;;;;;20.74;37.18;102636.59;4995311;28;20136;-96
2022/05/08 08:35:27;;;;;;;11.50;3.95;;;;;;;21.00;36.78;102631.28;4985491;28;20033;-94
2022/05/08 08:37:53;;;;;;;11.70;4.18;;;;;;;21.28;36.03;102633.00;4990373;28;20033;-96
2022/05/08 08:40:19;;;;;;;16.27;4.60;;;;;;;20.84;36.25;102637.69;4992095;28;20034;-96
2022/05/08 08:42:44;;;;;;;15.43;4.25;;;;;;;20.48;37.05;102643.66;5002786;28;20018;-96
2022/05/08 08:48:14;;;;;;;14.52;4.55;;;;;;;19.70;38.97;102648.56;5037138;23;20065;-96
2022/05/08 08:50:43;;;;;;;12.95;4.28;;;;;;;20.07;38.54;102616.56;4997935;28;20037;-96
2022/05/08 08:53:09;;;;;;;16.00;4.25;;;;;;;20.97;35.83;102602.56;4996473;28;20034;-96
2022/05/08 08:55:37;;;;;;;13.43;4.35;;;;;;;21.33;35.31;102628.19;5000677;28;20018;-96
2022/05/08 08:58:02;;;;;;;14.73;4.78;;;;;;;21.85;34.25;102609.16;4999444;28;20045;-96
2022/05/08 09:00:28;;;;;;;11.55;4.25;;;;;;;22.69;32.80;102618.47;4981734;28;20027;-96
2022/05/08 09:02:55;;;;;;;13.07;4.15;;;;;;;23.31;31.88;102623.75;5000122;28;20029;-96
2022/05/08 09:05:21;;;;;;;11.25;3.88;;;;;;;23.34;31.26;102618.09;5003659;28;20014;-96
2022/05/08 09:07:55;;;;;;;11.80;4.10;;;;;;;23.74;31.29;102606.84;5008314;28;20035;-96
2022/05/08 09:10:26;;;;;;;13.95;4.35;;;;;;;23.84;28.81;102618.72;5006518;28;20407;-96
2022/05/08 09:12:51;;;;;;;12.52;4.10;;;;;;;24.14;28.98;102652.63;4998163;28;20026;-96
2022/05/08 09:15:27;;;;;;;10.17;4.37;;;;;;;24.74;28.55;102654.09;4991636;28;20065;-96
2022/05/08 09:18:04;;;;;;;14.27;4.00;;;;;;;25.23;29.66;102643.72;5010196;28;20323;-96
2022/05/08 09:20:44;;;;;;;13.38;4.40;;;;;;;25.18;28.50;102649.56;5004117;28;20046;-96
2022/05/08 09:23:14;;;;;;;13.45;4.20;;;;;;;25.18;27.46;102657.75;5219746;22;20124;-96
2022/05/08 09:25:53;;;;;;;10.10;3.63;;;;;;;25.42;27.57;102635.72;5014020;23;20054;-96
2022/05/08 09:28:24;;;;;;;13.80;4.60;;;;;;;25.42;26.91;102653.94;4970934;28;20101;-96
2022/05/08 09:30:54;;;;;;;12.38;4.00;;;;;;;25.73;26.61;102649.41;4988502;28;20035;-96
2022/05/08 09:35:56;;;;;;;10.10;3.78;;;;;;;26.47;25.30;102617.38;5025596;23;20095;-95
2022/05/08 09:38:51;;;;;;;9.60;3.80;;;;;;;27.03;25.48;102645.94;4997150;28;20033;-96
2022/05/08 09:41:38;;;;;;;11.32;3.60;;;;;;;26.89;27.01;102639.03;4986466;28;20034;-93
2022/05/08 09:44:09;;;;;;;11.25;3.80;;;;;;;26.36;23.85;102636.56;4959343;28;20054;-92
2022/05/08 09:46:36;;;;;;;8.95;3.50;;;;;;;26.21;23.96;102630.63;4982470;28;20033;-94
2022/05/08 09:49:02;;;;;;;11.55;3.40;;;;;;;26.89;23.73;102640.91;4973352;28;20027;-89
2022/05/08 09:51:28;;;;;;;8.38;2.78;;;;;;;27.49;22.76;102630.72;4987223;28;20086;-91
2022/05/08 09:53:55;;;;;;;9.85;2.80;;;;;;;27.89;22.12;102629.66;4984306;28;20623;-91
2022/05/08 09:56:21;;;;;;;8.45;3.10;;;;;;;28.03;21.66;102626.44;4970959;28;20480;-90
2022/05/08 09:58:47;;;;;;;12.70;3.78;;;;;;;28.33;22.38;102633.50;4973854;28;20038;-89
2022/05/08 10:01:13;;;;;;;11.38;3.60;;;;;;;28.44;21.73;102635.25;4979463;28;20036;-90
2022/05/08 10:03:39;;;;;;;10.80;4.03;;;;;;;28.27;22.10;102634.13;4980675;28;20133;-93
2022/05/08 10:06:04;;;;;;;11.15;3.90;;;;;;;28.76;22.47;102629.25;4980210;28;20357;-92
2022/05/08 10:08:34;;;;;;;8.30;3.50;;;;;;;27.83;21.54;102631.09;4967146;28;20414;-91
2022/05/08 10:16:43;;;;;;;8.93;3.38;;;;;;;28.26;22.85;102632.41;4982255;28;20042;-93
2022/05/08 10:19:35;;;;;;;10.70;3.95;;;;;;;27.89;22.42;102626.94;4982801;28;20031;-91
2022/05/08 10:22:02;;;;;;;9.15;3.70;;;;;;;28.01;21.25;102623.00;4976026;28;20042;-92
2022/05/08 10:24:28;;;;;;;9.40;3.92;;;;;;;28.58;21.60;102623.75;4991386;28;20113;-93
2022/05/08 10:27:21;;;;;;;10.48;3.78;;;;;;;28.94;22.87;102613.72;4989781;28;20582;-91
2022/05/08 10:29:49;;;;;;;7.47;3.45;;;;;;;29.27;21.08;102611.31;4980540;28;20141;-91
2022/05/08 10:32:33;;;;;;;10.82;3.53;;;;;;;29.28;21.67;102611.13;4991041;28;20536;-92
2022/05/08 10:35:11;;;;;;;;;;;;;;;30.84;20.69;102618.38;4991109;28;20412;-92
2022/05/08 10:37:38;;;;;;;9.18;3.92;;;;;;;29.42;20.02;102608.84;4986198;28;19965;-92
2022/05/08 10:40:24;;;;;;;9.43;3.47;;;;;;;29.78;19.85;102604.16;4977625;28;20068;-91
2022/05/08 10:42:56;;;;;;;11.15;3.95;;;;;;;31.10;19.45;102606.38;4989710;28;20026;-93
2022/05/08 10:45:30;;;;;;;6.47;3.10;;;;;;;31.07;19.45;102607.59;4990625;28;20022;-91
2022/05/08 10:48:07;;;;;;;7.53;3.47;;;;;;;30.63;19.20;102610.56;4987289;28;20046;-91
2022/05/08 10:50:33;;;;;;;10.52;3.70;;;;;;;30.56;19.01;102605.91;4973793;28;20038;-92
2022/05/08 10:52:58;;;;;;;7.75;3.83;;;;;;;31.16;19.15;102603.81;4986035;28;20041;-91
2022/05/08 10:55:25;;;;;;;9.60;3.45;;;;;;;31.11;19.09;102599.88;4989900;28;20018;-92
2022/05/08 10:57:51;;;;;;;8.80;3.25;;;;;;;31.59;19.74;102599.00;4984220;28;20521;-93
2022/05/08 11:00:18;;;;;;;8.32;3.03;;;;;;;31.94;18.24;102595.00;4979499;28;20180;-92
2022/05/08 11:02:48;;;;;;;12.02;4.65;;;;;;;32.44;18.34;102596.56;4989436;28;20080;-91
2022/05/08 11:05:21;;;;;;;8.88;3.33;;;;;;;32.35;17.67;102594.81;4986645;28;20491;-93
2022/05/08 11:07:54;;;;;;;8.13;3.75;;;;;;;32.17;18.34;102606.09;4974663;28;20030;-92
2022/05/08 11:10:24;;;;;;;9.15;3.20;;;;;;;31.44;18.77;102592.50;4989644;28;20034;-93
2022/05/08 11:12:59;;;;;;;8.77;3.13;;;;;;;32.46;18.87;102601.88;4971984;28;20491;-93
2022/05/08 11:15:24;;;;;;;9.15;3.10;;;;;;;32.22;17.68;102600.91;4972352;28;20515;-92
2022/05/08 11:18:15;;;;;;;7.55;3.45;;;;;;;32.82;19.07;102593.91;4986777;28;20299;-92
2022/05/08 11:20:48;;;;;;;8.30;3.00;;;;;;;33.23;18.21;102585.31;4989201;28;20169;-92
2022/05/08 11:23:15;;;;;;;7.95;3.03;;;;;;;33.38;16.76;102599.16;4989005;28;20030;-92
2022/05/08 11:25:45;;;;;;;9.38;3.28;;;;;;;32.70;16.97;102589.84;4973824;28;20444;-93
2022/05/08 11:28:15;;;;;;;7.35;3.40;;;;;;;32.92;17.33;102588.16;4987595;28;20051;-93
2022/05/08 11:30:40;;;;;;;8.75;3.28;;;;;;;33.40;16.42;102586.03;4988925;28;20057;-93
2022/05/08 11:36:06;;;;;;;9.75;3.90;;;;;;;34.01;16.50;102589.56;4982845;28;20057;-92
2022/05/08 11:38:42;;;;;;;8.68;3.75;;;;;;;33.99;16.35;102586.16;4983158;28;20049;-93
2022/05/08 11:41:26;;;;;;;9.30;3.53;;;;;;;34.23;16.80;102579.44;4989552;28;20100;-92
2022/05/08 11:43:54;;;;;;;9.27;3.40;;;;;;;33.76;16.05;102574.31;4986424;28;20026;-93
2022/05/08 11:46:37;;;;;;;8.90;3.08;;;;;;;33.86;16.19;102578.50;4990001;28;20030;-92
2022/05/08 11:49:27;;;;;;;7.65;3.20;;;;;;;33.73;16.08;102572.75;4971618;28;20030;-93
2022/05/08 11:51:56;;;;;;;5.78;3.17;;;;;;;33.33;15.91;102576.78;4988553;28;20400;-93
2022/05/08 11:54:24;;;;;;;7.38;3.05;;;;;;;32.63;16.54;102575.06;4988739;28;20022;-94